sensor_id;sensor_type;location;lat;lon;timestamp;temperature;humidity
16198;DHT22;8206;51.440;6.914;2023-03-01T00:01:52;-1.40;1.00
16198;DHT22;8206;51.440;6.914;2023-03-01T00:04:20;-1.40;1.00
16198;DHT22;8206;51.440;6.914;2023-03-01T00:06:46;-1.40;1.00
16198;DHT22;8206;51.440;6.914;2023-03-01T00:09:13;-1.40;1.00
16198;DHT22;8206;51.440;6.914;2023-03-01T00:11:41;-1.40;1.00
16198;DHT22;8206;51.440;6.914;2023-03-01T00:14:07;-1.40;1.00
16198;DHT22;8206;51.440;6.914;2023-03-01T00:16:36;-1.40;1.00
16198;DHT22;8206;51.440;6.914;2023-03-01T00:19:06;-1.50;1.00
16198;DHT22;8206;51.440;6.914;2023-03-01T00:21:35;-1.50;1.00
16198;DHT22;8206;51.440;6.914;2023-03-01T00:24:02;-1.60;1.00
16198;DHT22;8206;51.440;6.914;2023-03-01T00:26:29;-1.70;1.00
16198;DHT22;8206;51.440;6.914;2023-03-01T00:28:57;-1.80;1.00
16198;DHT22;8206;51.440;6.914;2023-03-01T00:31:26;-1.80;1.00
16198;DHT22;8206;51.440;6.914;2023-03-01T00:33:53;-1.80;1.00
16198;DHT22;8206;51.440;6.914;2023-03-01T00:36:23;-1.90;1.00
16198;DHT22;8206;51.440;6.914;2023-03-01T00:38:52;-1.90;1.00
16198;DHT22;8206;51.440;6.914;2023-03-01T00:41:19;-2.00;1.00
16198;DHT22;8206;51.440;6.914;2023-03-01T00:43:48;-2.10;1.00
16198;DHT22;8206;51.440;6.914;2023-03-01T00:46:20;-2.10;1.00
16198;DHT22;8206;51.440;6.914;2023-03-01T00:48:47;-2.10;1.00
16198;DHT22;8206;51.440;6.914;2023-03-01T00:51:15;-2.00;1.00
16198;DHT22;8206;51.440;6.914;2023-03-01T00:53:43;-2.10;1.00
16198;DHT22;8206;51.440;6.914;2023-03-01T00:56:13;-2.00;1.00
16198;DHT22;8206;51.440;6.914;2023-03-01T00:58:40;-2.10;1.00
16198;DHT22;8206;51.440;6.914;2023-03-01T01:01:08;-2.20;1.00
16198;DHT22;8206;51.440;6.914;2023-03-01T01:03:42;-2.20;1.00
16198;DHT22;8206;51.440;6.914;2023-03-01T01:06:13;-2.20;1.00
16198;DHT22;8206;51.440;6.914;2023-03-01T01:08:40;-2.20;1.00
16198;DHT22;8206;51.440;6.914;2023-03-01T01:11:09;-2.20;1.00
16198;DHT22;8206;51.440;6.914;2023-03-01T01:13:38;-2.20;1.00
16198;DHT22;8206;51.440;6.914;2023-03-01T01:16:05;-2.20;1.00
16198;DHT22;8206;51.440;6.914;2023-03-01T01:18:32;-2.20;1.00
16198;DHT22;8206;51.440;6.914;2023-03-01T01:21:04;-2.20;1.00
16198;DHT22;8206;51.440;6.914;2023-03-01T01:23:31;-2.20;1.00
16198;DHT22;8206;51.440;6.914;2023-03-01T01:26:04;-2.20;1.00
16198;DHT22;8206;51.440;6.914;2023-03-01T01:28:30;-2.10;1.00
16198;DHT22;8206;51.440;6.914;2023-03-01T01:30:58;-2.10;1.00
16198;DHT22;8206;51.440;6.914;2023-03-01T01:33:25;-2.10;1.00
16198;DHT22;8206;51.440;6.914;2023-03-01T01:35:52;-2.20;1.00
16198;DHT22;8206;51.440;6.914;2023-03-01T01:38:19;-2.10;1.00
16198;DHT22;8206;51.440;6.914;2023-03-01T01:40:47;-2.20;1.00
16198;DHT22;8206;51.440;6.914;2023-03-01T01:43:19;-2.20;1.00
16198;DHT22;8206;51.440;6.914;2023-03-01T01:45:46;-2.30;1.00
16198;DHT22;8206;51.440;6.914;2023-03-01T01:48:17;-2.30;1.00
16198;DHT22;8206;51.440;6.914;2023-03-01T01:50:45;-2.30;1.00
16198;DHT22;8206;51.440;6.914;2023-03-01T01:53:18;-2.40;1.00
16198;DHT22;8206;51.440;6.914;2023-03-01T01:55:50;-2.40;1.00
16198;DHT22;8206;51.440;6.914;2023-03-01T01:58:19;-2.40;1.00
16198;DHT22;8206;51.440;6.914;2023-03-01T02:00:47;-2.30;1.00
16198;DHT22;8206;51.440;6.914;2023-03-01T02:03:19;-2.40;1.00
16198;DHT22;8206;51.440;6.914;2023-03-01T02:05:51;-2.40;1.00
16198;DHT22;8206;51.440;6.914;2023-03-01T02:08:20;-2.40;1.00
16198;DHT22;8206;51.440;6.914;2023-03-01T02:10:49;-2.30;1.00
16198;DHT22;8206;51.440;6.914;2023-03-01T02:13:16;-2.30;1.00
16198;DHT22;8206;51.440;6.914;2023-03-01T02:15:42;-2.30;1.00
16198;DHT22;8206;51.440;6.914;2023-03-01T02:21:42;-2.40;1.00
16198;DHT22;8206;51.440;6.914;2023-03-01T02:24:20;-2.50;1.00
16198;DHT22;8206;51.440;6.914;2023-03-01T02:26:55;-2.50;1.00
16198;DHT22;8206;51.440;6.914;2023-03-01T02:29:24;-2.50;1.00
16198;DHT22;8206;51.440;6.914;2023-03-01T02:31:52;-2.50;1.00
16198;DHT22;8206;51.440;6.914;2023-03-01T02:34:24;-2.50;1.00
16198;DHT22;8206;51.440;6.914;2023-03-01T02:36:55;-2.60;1.00
16198;DHT22;8206;51.440;6.914;2023-03-01T02:39:26;-2.60;1.00
16198;DHT22;8206;51.440;6.914;2023-03-01T02:41:54;-2.60;1.00
16198;DHT22;8206;51.440;6.914;2023-03-01T02:44:24;-2.70;1.00
16198;DHT22;8206;51.440;6.914;2023-03-01T02:46:52;-2.70;1.00
16198;DHT22;8206;51.440;6.914;2023-03-01T02:49:21;-2.80;1.00
16198;DHT22;8206;51.440;6.914;2023-03-01T02:52:01;-2.90;1.00
16198;DHT22;8206;51.440;6.914;2023-03-01T02:54:36;-2.90;1.00
16198;DHT22;8206;51.440;6.914;2023-03-01T02:57:05;-2.80;1.00
16198;DHT22;8206;51.440;6.914;2023-03-01T02:59:35;-2.80;1.00
16198;DHT22;8206;51.440;6.914;2023-03-01T03:02:04;-2.70;1.00
16198;DHT22;8206;51.440;6.914;2023-03-01T03:04:31;-2.60;1.00
16198;DHT22;8206;51.440;6.914;2023-03-01T03:06:58;-2.60;1.00
16198;DHT22;8206;51.440;6.914;2023-03-01T03:09:25;-2.60;1.00
16198;DHT22;8206;51.440;6.914;2023-03-01T03:11:52;-2.70;1.00
16198;DHT22;8206;51.440;6.914;2023-03-01T03:14:19;-2.70;1.00
16198;DHT22;8206;51.440;6.914;2023-03-01T03:16:49;-2.60;1.00
16198;DHT22;8206;51.440;6.914;2023-03-01T03:19:16;-2.60;1.00
16198;DHT22;8206;51.440;6.914;2023-03-01T03:21:43;-2.60;1.00
16198;DHT22;8206;51.440;6.914;2023-03-01T03:24:09;-2.60;1.00
16198;DHT22;8206;51.440;6.914;2023-03-01T03:26:36;-2.70;1.00
16198;DHT22;8206;51.440;6.914;2023-03-01T03:29:03;-2.60;1.00
16198;DHT22;8206;51.440;6.914;2023-03-01T03:31:30;-2.70;1.00
16198;DHT22;8206;51.440;6.914;2023-03-01T03:33:58;-2.70;1.00
16198;DHT22;8206;51.440;6.914;2023-03-01T03:36:25;-2.70;1.00
16198;DHT22;8206;51.440;6.914;2023-03-01T03:38:52;-2.70;1.00
16198;DHT22;8206;51.440;6.914;2023-03-01T03:41:19;-2.70;1.00
16198;DHT22;8206;51.440;6.914;2023-03-01T03:43:45;-2.70;1.00
16198;DHT22;8206;51.440;6.914;2023-03-01T03:46:12;-2.70;1.00
16198;DHT22;8206;51.440;6.914;2023-03-01T03:48:41;-2.70;1.00
16198;DHT22;8206;51.440;6.914;2023-03-01T03:51:11;-2.70;1.00
16198;DHT22;8206;51.440;6.914;2023-03-01T03:53:39;-2.70;1.00
16198;DHT22;8206;51.440;6.914;2023-03-01T03:56:06;-2.70;1.00
16198;DHT22;8206;51.440;6.914;2023-03-01T03:58:33;-2.80;1.00
16198;DHT22;8206;51.440;6.914;2023-03-01T04:01:00;-2.70;1.00
16198;DHT22;8206;51.440;6.914;2023-03-01T04:03:28;-2.70;1.00
16198;DHT22;8206;51.440;6.914;2023-03-01T04:05:57;-2.80;1.00
16198;DHT22;8206;51.440;6.914;2023-03-01T04:08:26;-2.80;1.00
16198;DHT22;8206;51.440;6.914;2023-03-01T04:10:57;-2.80;1.00
16198;DHT22;8206;51.440;6.914;2023-03-01T04:13:25;-2.80;1.00
16198;DHT22;8206;51.440;6.914;2023-03-01T04:15:52;-2.80;1.00
16198;DHT22;8206;51.440;6.914;2023-03-01T04:18:21;-2.80;1.00
16198;DHT22;8206;51.440;6.914;2023-03-01T04:20:48;-2.80;1.00
16198;DHT22;8206;51.440;6.914;2023-03-01T04:23:18;-2.80;1.00
16198;DHT22;8206;51.440;6.914;2023-03-01T04:25:48;-2.80;1.00
16198;DHT22;8206;51.440;6.914;2023-03-01T04:28:19;-2.80;1.00
16198;DHT22;8206;51.440;6.914;2023-03-01T04:30:46;-2.80;1.00
16198;DHT22;8206;51.440;6.914;2023-03-01T04:33:12;-2.70;1.00
16198;DHT22;8206;51.440;6.914;2023-03-01T04:35:39;-2.60;1.00
16198;DHT22;8206;51.440;6.914;2023-03-01T04:38:06;-2.60;1.00
16198;DHT22;8206;51.440;6.914;2023-03-01T04:40:33;-2.60;1.00
16198;DHT22;8206;51.440;6.914;2023-03-01T04:43:02;-2.70;1.00
16198;DHT22;8206;51.440;6.914;2023-03-01T04:45:29;-2.70;1.00
16198;DHT22;8206;51.440;6.914;2023-03-01T04:47:56;-2.70;1.00
16198;DHT22;8206;51.440;6.914;2023-03-01T04:50:23;-2.70;1.00
16198;DHT22;8206;51.440;6.914;2023-03-01T04:52:51;-2.70;1.00
16198;DHT22;8206;51.440;6.914;2023-03-01T04:55:18;-2.70;1.00
16198;DHT22;8206;51.440;6.914;2023-03-01T04:57:45;-2.70;1.00
16198;DHT22;8206;51.440;6.914;2023-03-01T05:00:14;-2.70;1.00
16198;DHT22;8206;51.440;6.914;2023-03-01T05:02:48;-2.70;1.00
16198;DHT22;8206;51.440;6.914;2023-03-01T05:05:19;-2.80;1.00
16198;DHT22;8206;51.440;6.914;2023-03-01T05:07:46;-2.80;1.00
16198;DHT22;8206;51.440;6.914;2023-03-01T05:10:13;-2.80;1.00
16198;DHT22;8206;51.440;6.914;2023-03-01T05:12:40;-2.90;1.00
16198;DHT22;8206;51.440;6.914;2023-03-01T05:15:07;-2.90;1.00
16198;DHT22;8206;51.440;6.914;2023-03-01T05:17:36;-2.90;1.00
16198;DHT22;8206;51.440;6.914;2023-03-01T05:20:03;-2.90;1.00
16198;DHT22;8206;51.440;6.914;2023-03-01T05:22:34;-3.00;1.00
16198;DHT22;8206;51.440;6.914;2023-03-01T05:25:01;-3.00;1.00
16198;DHT22;8206;51.440;6.914;2023-03-01T05:27:27;-3.00;1.00
16198;DHT22;8206;51.440;6.914;2023-03-01T05:29:55;-3.00;1.00
16198;DHT22;8206;51.440;6.914;2023-03-01T05:32:21;-2.90;1.00
16198;DHT22;8206;51.440;6.914;2023-03-01T05:34:49;-2.90;1.00
16198;DHT22;8206;51.440;6.914;2023-03-01T05:37:17;-2.90;1.00
16198;DHT22;8206;51.440;6.914;2023-03-01T05:39:44;-2.90;1.00
16198;DHT22;8206;51.440;6.914;2023-03-01T05:42:11;-2.90;1.00
16198;DHT22;8206;51.440;6.914;2023-03-01T05:44:38;-2.80;1.00
16198;DHT22;8206;51.440;6.914;2023-03-01T05:47:06;-2.80;1.00
16198;DHT22;8206;51.440;6.914;2023-03-01T05:49:32;-2.80;1.00
16198;DHT22;8206;51.440;6.914;2023-03-01T05:52:01;-2.90;1.00
16198;DHT22;8206;51.440;6.914;2023-03-01T05:54:28;-2.90;1.00
16198;DHT22;8206;51.440;6.914;2023-03-01T05:56:54;-2.90;1.00
16198;DHT22;8206;51.440;6.914;2023-03-01T05:59:21;-2.90;1.00
16198;DHT22;8206;51.440;6.914;2023-03-01T06:01:48;-3.00;1.00
16198;DHT22;8206;51.440;6.914;2023-03-01T06:04:15;-3.00;1.00
16198;DHT22;8206;51.440;6.914;2023-03-01T06:06:42;-3.10;1.00
16198;DHT22;8206;51.440;6.914;2023-03-01T06:09:10;-3.10;1.00
16198;DHT22;8206;51.440;6.914;2023-03-01T06:11:37;-3.10;1.00
16198;DHT22;8206;51.440;6.914;2023-03-01T06:14:04;-3.10;1.00
16198;DHT22;8206;51.440;6.914;2023-03-01T06:16:31;-3.00;1.00
16198;DHT22;8206;51.440;6.914;2023-03-01T06:18:58;-3.10;1.00
16198;DHT22;8206;51.440;6.914;2023-03-01T06:21:25;-3.10;1.00
16198;DHT22;8206;51.440;6.914;2023-03-01T06:23:52;-3.10;1.00
16198;DHT22;8206;51.440;6.914;2023-03-01T06:26:20;-3.00;1.00
16198;DHT22;8206;51.440;6.914;2023-03-01T06:28:46;-3.00;1.00
16198;DHT22;8206;51.440;6.914;2023-03-01T06:31:13;-3.00;1.00
16198;DHT22;8206;51.440;6.914;2023-03-01T06:33:40;-3.00;1.00
16198;DHT22;8206;51.440;6.914;2023-03-01T06:36:07;-3.00;1.00
16198;DHT22;8206;51.440;6.914;2023-03-01T06:38:35;-3.00;1.00
16198;DHT22;8206;51.440;6.914;2023-03-01T06:41:02;-3.00;1.00
16198;DHT22;8206;51.440;6.914;2023-03-01T06:43:30;-3.00;1.00
16198;DHT22;8206;51.440;6.914;2023-03-01T06:45:57;-3.00;1.00
16198;DHT22;8206;51.440;6.914;2023-03-01T06:48:24;-3.00;1.00
16198;DHT22;8206;51.440;6.914;2023-03-01T06:50:50;-3.10;1.00
16198;DHT22;8206;51.440;6.914;2023-03-01T06:53:17;-3.10;1.00
16198;DHT22;8206;51.440;6.914;2023-03-01T06:55:44;-3.10;1.00
16198;DHT22;8206;51.440;6.914;2023-03-01T06:58:10;-3.00;1.00
16198;DHT22;8206;51.440;6.914;2023-03-01T07:00:39;-3.00;1.00
16198;DHT22;8206;51.440;6.914;2023-03-01T07:03:06;-2.90;1.00
16198;DHT22;8206;51.440;6.914;2023-03-01T07:05:33;-2.80;1.00
16198;DHT22;8206;51.440;6.914;2023-03-01T07:08:00;-2.80;1.00
16198;DHT22;8206;51.440;6.914;2023-03-01T07:10:27;-2.60;1.00
16198;DHT22;8206;51.440;6.914;2023-03-01T07:12:55;-2.50;1.00
16198;DHT22;8206;51.440;6.914;2023-03-01T07:15:22;-2.40;1.00
16198;DHT22;8206;51.440;6.914;2023-03-01T07:17:50;-2.40;1.00
16198;DHT22;8206;51.440;6.914;2023-03-01T07:20:18;-2.30;1.00
16198;DHT22;8206;51.440;6.914;2023-03-01T07:22:47;-2.10;1.00
16198;DHT22;8206;51.440;6.914;2023-03-01T07:25:14;-2.00;1.00
16198;DHT22;8206;51.440;6.914;2023-03-01T07:27:41;-2.00;1.00
16198;DHT22;8206;51.440;6.914;2023-03-01T07:30:09;-1.80;1.00
16198;DHT22;8206;51.440;6.914;2023-03-01T07:32:36;-1.70;1.00
16198;DHT22;8206;51.440;6.914;2023-03-01T07:35:05;-1.60;1.00
16198;DHT22;8206;51.440;6.914;2023-03-01T07:37:31;-1.50;1.00
16198;DHT22;8206;51.440;6.914;2023-03-01T07:39:58;-1.40;1.00
16198;DHT22;8206;51.440;6.914;2023-03-01T07:42:25;-1.40;1.00
16198;DHT22;8206;51.440;6.914;2023-03-01T07:44:52;-1.30;1.00
16198;DHT22;8206;51.440;6.914;2023-03-01T07:47:18;-1.20;1.00
16198;DHT22;8206;51.440;6.914;2023-03-01T07:49:45;-1.20;1.00
16198;DHT22;8206;51.440;6.914;2023-03-01T07:52:13;-1.20;1.00
16198;DHT22;8206;51.440;6.914;2023-03-01T07:54:42;-1.20;1.00
16198;DHT22;8206;51.440;6.914;2023-03-01T07:57:09;-1.10;1.00
16198;DHT22;8206;51.440;6.914;2023-03-01T07:59:36;-1.10;1.00
16198;DHT22;8206;51.440;6.914;2023-03-01T08:02:03;-1.00;1.00
16198;DHT22;8206;51.440;6.914;2023-03-01T08:04:30;-1.00;1.00
16198;DHT22;8206;51.440;6.914;2023-03-01T08:06:56;-0.90;1.00
16198;DHT22;8206;51.440;6.914;2023-03-01T08:09:25;-0.90;1.00
16198;DHT22;8206;51.440;6.914;2023-03-01T08:11:51;-0.80;1.00
16198;DHT22;8206;51.440;6.914;2023-03-01T08:14:19;-0.70;1.00
16198;DHT22;8206;51.440;6.914;2023-03-01T08:16:49;-0.70;1.00
16198;DHT22;8206;51.440;6.914;2023-03-01T08:19:15;-0.60;1.00
16198;DHT22;8206;51.440;6.914;2023-03-01T08:21:42;-0.60;1.00
16198;DHT22;8206;51.440;6.914;2023-03-01T08:24:09;-0.40;1.00
16198;DHT22;8206;51.440;6.914;2023-03-01T08:26:38;-0.30;1.00
16198;DHT22;8206;51.440;6.914;2023-03-01T08:29:04;-0.20;1.00
16198;DHT22;8206;51.440;6.914;2023-03-01T08:31:33;-0.10;1.00
16198;DHT22;8206;51.440;6.914;2023-03-01T08:34:03;0.00;1.00
16198;DHT22;8206;51.440;6.914;2023-03-01T08:36:31;0.10;1.00
16198;DHT22;8206;51.440;6.914;2023-03-01T08:38:59;0.20;1.00
16198;DHT22;8206;51.440;6.914;2023-03-01T08:41:25;0.30;1.00
16198;DHT22;8206;51.440;6.914;2023-03-01T08:43:54;0.40;1.00
16198;DHT22;8206;51.440;6.914;2023-03-01T08:46:24;0.60;1.00
16198;DHT22;8206;51.440;6.914;2023-03-01T08:48:51;0.70;1.00
16198;DHT22;8206;51.440;6.914;2023-03-01T08:51:18;0.80;1.00
16198;DHT22;8206;51.440;6.914;2023-03-01T08:53:46;0.80;1.00
16198;DHT22;8206;51.440;6.914;2023-03-01T08:56:14;0.90;1.00
16198;DHT22;8206;51.440;6.914;2023-03-01T08:58:44;0.90;1.00
16198;DHT22;8206;51.440;6.914;2023-03-01T09:01:14;1.00;1.00
16198;DHT22;8206;51.440;6.914;2023-03-01T09:03:41;1.00;1.00
16198;DHT22;8206;51.440;6.914;2023-03-01T09:06:08;1.10;1.00
16198;DHT22;8206;51.440;6.914;2023-03-01T09:08:36;1.20;1.00
16198;DHT22;8206;51.440;6.914;2023-03-01T09:11:04;1.20;1.00
16198;DHT22;8206;51.440;6.914;2023-03-01T09:13:31;1.30;1.00
16198;DHT22;8206;51.440;6.914;2023-03-01T09:15:59;1.30;1.00
16198;DHT22;8206;51.440;6.914;2023-03-01T09:18:28;1.40;1.00
16198;DHT22;8206;51.440;6.914;2023-03-01T09:21:01;1.50;1.00
16198;DHT22;8206;51.440;6.914;2023-03-01T09:23:27;1.60;1.00
16198;DHT22;8206;51.440;6.914;2023-03-01T09:25:54;1.70;1.00
16198;DHT22;8206;51.440;6.914;2023-03-01T09:28:21;1.80;1.00
16198;DHT22;8206;51.440;6.914;2023-03-01T09:30:48;1.90;1.00
16198;DHT22;8206;51.440;6.914;2023-03-01T09:33:15;2.00;1.00
16198;DHT22;8206;51.440;6.914;2023-03-01T09:35:43;2.00;1.00
16198;DHT22;8206;51.440;6.914;2023-03-01T09:38:12;2.10;1.00
16198;DHT22;8206;51.440;6.914;2023-03-01T09:40:42;2.20;1.00
16198;DHT22;8206;51.440;6.914;2023-03-01T09:43:18;2.20;1.00
16198;DHT22;8206;51.440;6.914;2023-03-01T09:45:48;2.30;1.00
16198;DHT22;8206;51.440;6.914;2023-03-01T09:48:18;2.40;1.00
16198;DHT22;8206;51.440;6.914;2023-03-01T09:50:49;2.50;1.00
16198;DHT22;8206;51.440;6.914;2023-03-01T09:53:18;2.60;1.00
16198;DHT22;8206;51.440;6.914;2023-03-01T09:55:50;2.70;1.00
16198;DHT22;8206;51.440;6.914;2023-03-01T09:58:41;2.80;1.00
16198;DHT22;8206;51.440;6.914;2023-03-01T10:01:27;2.90;1.00
16198;DHT22;8206;51.440;6.914;2023-03-01T10:04:19;2.90;1.00
16198;DHT22;8206;51.440;6.914;2023-03-01T10:07:03;3.00;1.00
16198;DHT22;8206;51.440;6.914;2023-03-01T10:09:33;3.00;1.00
16198;DHT22;8206;51.440;6.914;2023-03-01T10:12:01;3.10;1.00
16198;DHT22;8206;51.440;6.914;2023-03-01T10:14:32;3.30;99.90
16198;DHT22;8206;51.440;6.914;2023-03-01T10:17:03;3.30;1.00
16198;DHT22;8206;51.440;6.914;2023-03-01T10:19:33;3.40;99.90
16198;DHT22;8206;51.440;6.914;2023-03-01T10:22:10;3.50;99.90
16198;DHT22;8206;51.440;6.914;2023-03-01T10:24:39;3.60;99.90
16198;DHT22;8206;51.440;6.914;2023-03-01T10:27:09;3.60;99.90
16198;DHT22;8206;51.440;6.914;2023-03-01T10:29:40;3.60;99.90
16198;DHT22;8206;51.440;6.914;2023-03-01T10:32:10;3.60;99.90
16198;DHT22;8206;51.440;6.914;2023-03-01T10:34:37;3.70;99.90
16198;DHT22;8206;51.440;6.914;2023-03-01T10:37:11;3.70;99.90
16198;DHT22;8206;51.440;6.914;2023-03-01T10:39:55;3.70;99.90
16198;DHT22;8206;51.440;6.914;2023-03-01T10:42:26;3.70;99.90
16198;DHT22;8206;51.440;6.914;2023-03-01T10:44:54;3.80;99.90
16198;DHT22;8206;51.440;6.914;2023-03-01T10:47:23;3.80;99.90
16198;DHT22;8206;51.440;6.914;2023-03-01T10:50:01;3.80;99.90
16198;DHT22;8206;51.440;6.914;2023-03-01T10:52:33;3.80;99.90
16198;DHT22;8206;51.440;6.914;2023-03-01T10:55:04;3.80;99.90
16198;DHT22;8206;51.440;6.914;2023-03-01T10:57:44;3.90;99.90
16198;DHT22;8206;51.440;6.914;2023-03-01T11:00:17;4.00;99.90
16198;DHT22;8206;51.440;6.914;2023-03-01T11:02:48;4.10;99.90
16198;DHT22;8206;51.440;6.914;2023-03-01T11:05:21;4.10;99.90
16198;DHT22;8206;51.440;6.914;2023-03-01T11:07:53;4.00;99.90
16198;DHT22;8206;51.440;6.914;2023-03-01T11:10:23;4.10;99.90
16198;DHT22;8206;51.440;6.914;2023-03-01T11:12:51;4.10;99.90
16198;DHT22;8206;51.440;6.914;2023-03-01T11:15:25;4.30;99.90
16198;DHT22;8206;51.440;6.914;2023-03-01T11:17:52;4.40;99.90
16198;DHT22;8206;51.440;6.914;2023-03-01T11:20:25;4.40;99.90
16198;DHT22;8206;51.440;6.914;2023-03-01T11:22:56;4.40;99.90
16198;DHT22;8206;51.440;6.914;2023-03-01T11:25:26;4.50;99.90
16198;DHT22;8206;51.440;6.914;2023-03-01T11:27:54;4.50;99.90
16198;DHT22;8206;51.440;6.914;2023-03-01T11:30:25;4.50;99.90
16198;DHT22;8206;51.440;6.914;2023-03-01T11:33:03;4.50;99.90
16198;DHT22;8206;51.440;6.914;2023-03-01T11:35:32;4.50;99.90
16198;DHT22;8206;51.440;6.914;2023-03-01T11:38:17;4.40;99.90
16198;DHT22;8206;51.440;6.914;2023-03-01T11:40:47;4.50;99.90
16198;DHT22;8206;51.440;6.914;2023-03-01T11:43:23;4.60;99.90
16198;DHT22;8206;51.440;6.914;2023-03-01T11:49:19;4.80;99.90
16198;DHT22;8206;51.440;6.914;2023-03-01T11:51:53;4.80;99.90
16198;DHT22;8206;51.440;6.914;2023-03-01T11:54:36;4.80;99.90
16198;DHT22;8206;51.440;6.914;2023-03-01T11:57:13;4.80;99.90
16198;DHT22;8206;51.440;6.914;2023-03-01T11:59:55;4.70;99.90
16198;DHT22;8206;51.440;6.914;2023-03-01T12:02:53;4.60;99.90
16198;DHT22;8206;51.440;6.914;2023-03-01T12:08:35;4.70;99.90
16198;DHT22;8206;51.440;6.914;2023-03-01T12:11:14;4.80;99.90
16198;DHT22;8206;51.440;6.914;2023-03-01T12:14:03;4.80;99.90
16198;DHT22;8206;51.440;6.914;2023-03-01T12:16:46;4.90;99.90
16198;DHT22;8206;51.440;6.914;2023-03-01T12:19:37;4.90;99.90
16198;DHT22;8206;51.440;6.914;2023-03-01T12:22:17;5.00;99.90
16198;DHT22;8206;51.440;6.914;2023-03-01T12:28:06;5.20;99.90
16198;DHT22;8206;51.440;6.914;2023-03-01T12:30:41;5.20;99.90
16198;DHT22;8206;51.440;6.914;2023-03-01T12:33:19;5.30;99.90
16198;DHT22;8206;51.440;6.914;2023-03-01T12:36:19;5.40;99.90
16198;DHT22;8206;51.440;6.914;2023-03-01T12:38:50;5.50;99.90
16198;DHT22;8206;51.440;6.914;2023-03-01T12:41:38;5.50;99.90
16198;DHT22;8206;51.440;6.914;2023-03-01T12:44:21;5.50;99.90
16198;DHT22;8206;51.440;6.914;2023-03-01T12:47:03;5.60;99.90
16198;DHT22;8206;51.440;6.914;2023-03-01T12:49:34;5.50;99.90
16198;DHT22;8206;51.440;6.914;2023-03-01T12:52:09;5.60;99.90
16198;DHT22;8206;51.440;6.914;2023-03-01T12:54:37;5.70;99.90
16198;DHT22;8206;51.440;6.914;2023-03-01T12:57:12;5.70;99.90
16198;DHT22;8206;51.440;6.914;2023-03-01T12:59:51;5.60;99.90
16198;DHT22;8206;51.440;6.914;2023-03-01T13:02:33;5.70;99.90
16198;DHT22;8206;51.440;6.914;2023-03-01T13:05:18;5.70;99.90
16198;DHT22;8206;51.440;6.914;2023-03-01T13:07:53;5.70;99.90
16198;DHT22;8206;51.440;6.914;2023-03-01T13:10:24;5.80;99.90
16198;DHT22;8206;51.440;6.914;2023-03-01T13:13:02;5.80;99.90
16198;DHT22;8206;51.440;6.914;2023-03-01T13:15:35;5.90;99.90
16198;DHT22;8206;51.440;6.914;2023-03-01T13:18:04;5.90;99.90
16198;DHT22;8206;51.440;6.914;2023-03-01T13:20:44;5.90;99.90
16198;DHT22;8206;51.440;6.914;2023-03-01T13:23:23;5.90;99.90
16198;DHT22;8206;51.440;6.914;2023-03-01T13:26:10;5.90;99.90
16198;DHT22;8206;51.440;6.914;2023-03-01T13:28:56;5.90;99.90
16198;DHT22;8206;51.440;6.914;2023-03-01T13:32:00;5.90;99.90
16198;DHT22;8206;51.440;6.914;2023-03-01T13:34:44;6.00;99.90
16198;DHT22;8206;51.440;6.914;2023-03-01T13:37:20;6.10;99.90
16198;DHT22;8206;51.440;6.914;2023-03-01T13:39:47;6.20;99.90
16198;DHT22;8206;51.440;6.914;2023-03-01T13:42:35;6.20;99.90
16198;DHT22;8206;51.440;6.914;2023-03-01T13:45:05;6.20;99.90
16198;DHT22;8206;51.440;6.914;2023-03-01T13:47:42;6.10;99.90
16198;DHT22;8206;51.440;6.914;2023-03-01T13:50:16;6.10;99.90
16198;DHT22;8206;51.440;6.914;2023-03-01T13:52:47;6.10;99.90
16198;DHT22;8206;51.440;6.914;2023-03-01T13:55:18;6.20;99.90
16198;DHT22;8206;51.440;6.914;2023-03-01T13:57:48;6.10;99.90
16198;DHT22;8206;51.440;6.914;2023-03-01T14:00:31;6.10;99.90
16198;DHT22;8206;51.440;6.914;2023-03-01T14:03:09;6.10;99.90
16198;DHT22;8206;51.440;6.914;2023-03-01T14:05:37;6.10;99.90
16198;DHT22;8206;51.440;6.914;2023-03-01T14:08:05;6.10;99.90
16198;DHT22;8206;51.440;6.914;2023-03-01T14:10:54;6.10;99.90
16198;DHT22;8206;51.440;6.914;2023-03-01T14:13:32;6.10;99.90
16198;DHT22;8206;51.440;6.914;2023-03-01T14:16:20;6.10;99.90
16198;DHT22;8206;51.440;6.914;2023-03-01T14:18:57;6.10;99.90
16198;DHT22;8206;51.440;6.914;2023-03-01T14:21:27;6.10;99.90
16198;DHT22;8206;51.440;6.914;2023-03-01T14:23:57;6.20;99.90
16198;DHT22;8206;51.440;6.914;2023-03-01T14:26:24;6.20;99.90
16198;DHT22;8206;51.440;6.914;2023-03-01T14:28:51;6.30;99.90
16198;DHT22;8206;51.440;6.914;2023-03-01T14:31:32;6.30;99.90
16198;DHT22;8206;51.440;6.914;2023-03-01T14:34:01;6.30;99.90
16198;DHT22;8206;51.440;6.914;2023-03-01T14:36:29;6.20;99.90
16198;DHT22;8206;51.440;6.914;2023-03-01T14:38:56;6.20;99.90
16198;DHT22;8206;51.440;6.914;2023-03-01T14:41:32;6.20;99.90
16198;DHT22;8206;51.440;6.914;2023-03-01T14:44:02;6.10;99.90
16198;DHT22;8206;51.440;6.914;2023-03-01T14:46:32;6.10;99.90
16198;DHT22;8206;51.440;6.914;2023-03-01T14:49:04;6.10;99.90
16198;DHT22;8206;51.440;6.914;2023-03-01T14:51:36;6.20;99.90
16198;DHT22;8206;51.440;6.914;2023-03-01T14:54:05;6.20;99.90
16198;DHT22;8206;51.440;6.914;2023-03-01T14:56:44;6.30;99.90
16198;DHT22;8206;51.440;6.914;2023-03-01T14:59:11;6.20;99.90
16198;DHT22;8206;51.440;6.914;2023-03-01T15:01:40;6.30;99.90
16198;DHT22;8206;51.440;6.914;2023-03-01T15:04:11;6.20;99.90
16198;DHT22;8206;51.440;6.914;2023-03-01T15:06:38;6.30;99.90
16198;DHT22;8206;51.440;6.914;2023-03-01T15:09:06;6.30;99.90
16198;DHT22;8206;51.440;6.914;2023-03-01T15:11:37;6.30;99.90
16198;DHT22;8206;51.440;6.914;2023-03-01T15:14:24;6.40;99.90
16198;DHT22;8206;51.440;6.914;2023-03-01T15:16:51;6.40;99.90
16198;DHT22;8206;51.440;6.914;2023-03-01T15:19:19;6.30;99.90
16198;DHT22;8206;51.440;6.914;2023-03-01T15:21:48;6.30;99.90
16198;DHT22;8206;51.440;6.914;2023-03-01T15:24:18;6.20;99.90
16198;DHT22;8206;51.440;6.914;2023-03-01T15:26:51;6.20;99.90
16198;DHT22;8206;51.440;6.914;2023-03-01T15:29:22;6.20;99.90
16198;DHT22;8206;51.440;6.914;2023-03-01T15:31:57;6.20;99.90
16198;DHT22;8206;51.440;6.914;2023-03-01T15:34:28;6.20;99.90
16198;DHT22;8206;51.440;6.914;2023-03-01T15:36:56;6.20;99.90
16198;DHT22;8206;51.440;6.914;2023-03-01T15:39:35;6.20;99.90
16198;DHT22;8206;51.440;6.914;2023-03-01T15:42:04;6.10;99.90
16198;DHT22;8206;51.440;6.914;2023-03-01T15:44:34;6.10;99.90
16198;DHT22;8206;51.440;6.914;2023-03-01T15:47:01;6.10;99.90
16198;DHT22;8206;51.440;6.914;2023-03-01T15:49:37;6.10;99.90
16198;DHT22;8206;51.440;6.914;2023-03-01T15:52:09;6.10;99.90
16198;DHT22;8206;51.440;6.914;2023-03-01T15:54:39;6.00;99.90
16198;DHT22;8206;51.440;6.914;2023-03-01T15:57:10;6.00;99.90
16198;DHT22;8206;51.440;6.914;2023-03-01T15:59:38;6.00;99.90
16198;DHT22;8206;51.440;6.914;2023-03-01T16:02:09;6.00;99.90
16198;DHT22;8206;51.440;6.914;2023-03-01T16:04:37;6.00;99.90
16198;DHT22;8206;51.440;6.914;2023-03-01T16:07:04;6.00;99.90
16198;DHT22;8206;51.440;6.914;2023-03-01T16:09:31;5.90;99.90
16198;DHT22;8206;51.440;6.914;2023-03-01T16:11:58;5.90;99.90
16198;DHT22;8206;51.440;6.914;2023-03-01T16:14:25;5.90;99.90
16198;DHT22;8206;51.440;6.914;2023-03-01T16:16:52;5.90;99.90
16198;DHT22;8206;51.440;6.914;2023-03-01T16:19:19;5.70;99.90
16198;DHT22;8206;51.440;6.914;2023-03-01T16:21:47;5.70;99.90
16198;DHT22;8206;51.440;6.914;2023-03-01T16:24:15;5.80;99.90
16198;DHT22;8206;51.440;6.914;2023-03-01T16:26:42;5.70;99.90
16198;DHT22;8206;51.440;6.914;2023-03-01T16:29:09;5.70;99.90
16198;DHT22;8206;51.440;6.914;2023-03-01T16:31:36;5.70;99.90
16198;DHT22;8206;51.440;6.914;2023-03-01T16:34:03;5.60;99.90
16198;DHT22;8206;51.440;6.914;2023-03-01T16:36:29;5.60;99.90